createdAt,value
2019-03-28T00:00:33.251Z,8.54
2019-03-28T00:05:39.231Z,7.66
2019-03-28T00:10:45.205Z,8.42
2019-03-28T00:15:51.326Z,8.34
2019-03-28T00:20:57.300Z,8.39
2019-03-28T00:26:03.310Z,7.89
2019-03-28T00:31:09.557Z,8.14
2019-03-28T00:36:15.217Z,7.39
2019-03-28T00:41:21.187Z,8.01
2019-03-28T00:46:27.145Z,8.00
2019-03-28T00:51:33.115Z,8.00
2019-03-28T00:56:46.791Z,9.09
2019-03-28T01:01:44.598Z,9.56
2019-03-28T01:06:50.588Z,10.63
2019-03-28T01:11:56.615Z,9.15
2019-03-28T01:17:02.586Z,8.91
2019-03-28T01:22:08.566Z,7.63
2019-03-28T01:27:14.532Z,8.93
2019-03-28T01:32:20.520Z,7.89
2019-03-28T01:37:26.494Z,8.37
2019-03-28T01:42:32.490Z,7.51
2019-03-28T01:47:38.483Z,7.66
2019-03-28T01:52:44.460Z,8.42
2019-03-28T01:57:50.435Z,11.36
2019-03-28T02:02:56.508Z,10.07
2019-03-28T02:08:02.811Z,11.14
2019-03-28T02:13:08.476Z,11.16
2019-03-28T02:18:14.455Z,11.53
2019-03-28T02:23:20.419Z,11.92
2019-03-28T02:28:26.388Z,11.01
2019-03-28T02:33:32.381Z,11.29
2019-03-28T02:38:38.386Z,11.30
2019-03-28T02:43:45.513Z,10.67
2019-03-28T02:48:49.830Z,9.80
2019-03-28T02:53:55.797Z,10.87
2019-03-28T02:59:02.804Z,10.74
2019-03-28T03:04:07.314Z,9.46
2019-03-28T03:09:13.351Z,9.82
2019-03-28T03:14:19.331Z,9.48
2019-03-28T03:19:25.868Z,11.32
2019-03-28T03:24:30.824Z,11.07
2019-03-28T03:29:36.777Z,12.02
2019-03-28T03:34:42.727Z,11.56
2019-03-28T03:39:48.691Z,11.44
2019-03-28T03:44:54.642Z,11.55
2019-03-28T03:50:00.638Z,12.07
2019-03-28T03:55:06.578Z,12.54
2019-03-28T04:00:12.546Z,12.53
2019-03-28T04:05:18.540Z,13.89
2019-03-28T04:10:24.533Z,12.98
2019-03-28T04:15:30.501Z,12.65
2019-03-28T04:20:36.471Z,11.98
2019-03-28T04:25:42.438Z,12.12
2019-03-28T04:30:48.509Z,12.02
2019-03-28T04:35:54.456Z,13.59
2019-03-28T04:41:00.611Z,11.07
2019-03-28T04:46:06.418Z,11.76
2019-03-28T04:51:12.396Z,11.85
2019-03-28T04:56:18.367Z,11.77
2019-03-28T05:01:24.440Z,10.89
2019-03-28T05:06:29.823Z,10.97
2019-03-28T05:11:35.771Z,11.56
2019-03-28T05:16:41.761Z,12.78
2019-03-28T05:21:47.783Z,15.29
2019-03-28T05:26:53.771Z,15.02
2019-03-28T05:32:00.409Z,14.80
2019-03-28T05:37:05.359Z,14.25
2019-03-28T05:42:11.325Z,13.72
2019-03-28T05:47:17.319Z,15.55
2019-03-28T05:52:23.337Z,13.24
2019-03-28T05:57:29.304Z,14.32
2019-03-28T06:02:35.257Z,13.82
2019-03-28T06:07:41.234Z,12.15
2019-03-28T06:12:47.220Z,14.35
2019-03-28T06:17:53.209Z,14.85
2019-03-28T06:22:59.242Z,17.90
2019-03-28T06:28:05.228Z,15.55
2019-03-28T06:33:11.208Z,15.75
2019-03-28T06:38:17.186Z,14.84
2019-03-28T06:43:23.362Z,15.35
2019-03-28T06:48:29.750Z,18.78
2019-03-28T06:53:35.722Z,16.68
2019-03-28T06:58:41.769Z,18.02
2019-03-28T07:03:47.805Z,17.61
2019-03-28T07:08:53.769Z,19.29
2019-03-28T07:13:59.775Z,19.07
2019-03-28T07:19:05.740Z,20.00
2019-03-28T07:24:11.725Z,20.14
2019-03-28T07:29:17.737Z,17.81
2019-03-28T07:34:23.769Z,20.90
2019-03-28T07:39:29.768Z,18.91
2019-03-28T07:44:37.607Z,19.62
2019-03-28T07:49:41.227Z,18.15
2019-03-28T07:54:48.832Z,18.02
2019-03-28T08:00:03.604Z,19.17
2019-03-28T08:05:01.244Z,19.54
2019-03-28T08:10:03.945Z,20.91
2019-03-28T08:15:09.934Z,19.97
2019-03-28T08:20:15.946Z,20.17
2019-03-28T08:25:21.933Z,19.26
2019-03-28T08:30:27.998Z,18.61
2019-03-28T08:35:33.972Z,20.08
2019-03-28T08:40:40.139Z,18.85
2019-03-28T08:45:45.912Z,19.00
2019-03-28T08:50:51.913Z,19.71
2019-03-28T08:55:57.886Z,18.15
2019-03-28T09:01:05.829Z,19.67
2019-03-28T09:06:09.334Z,20.71
2019-03-28T09:11:15.286Z,21.63
2019-03-28T09:16:21.254Z,20.19
2019-03-28T09:21:27.209Z,21.68
2019-03-28T09:26:33.313Z,20.66
2019-03-28T09:31:39.155Z,19.15
2019-03-28T09:36:45.144Z,19.53
2019-03-28T09:41:51.137Z,19.51
2019-03-28T09:46:57.108Z,18.98
2019-03-28T09:52:03.132Z,18.80
2019-03-28T09:57:09.099Z,19.82
2019-03-28T10:02:15.070Z,19.24
2019-03-28T10:07:21.222Z,20.22
2019-03-28T10:12:27.356Z,18.36
2019-03-28T10:17:33.438Z,18.89
2019-03-28T10:22:39.396Z,18.86
2019-03-28T10:27:45.383Z,19.15
2019-03-28T10:32:51.360Z,17.57
2019-03-28T10:37:57.333Z,19.73
2019-03-28T10:43:03.306Z,18.63
2019-03-28T10:48:09.297Z,19.30
2019-03-28T10:53:15.263Z,17.82
2019-03-28T10:58:21.223Z,18.81
2019-03-28T11:03:27.250Z,17.00
2019-03-28T11:08:36.379Z,16.48
2019-03-28T11:13:38.705Z,15.21
2019-03-28T11:18:44.710Z,18.32
2019-03-28T11:23:50.693Z,16.92
2019-03-28T11:28:56.663Z,15.78
2019-03-28T11:34:02.721Z,17.61
2019-03-28T11:39:08.881Z,14.14
2019-03-28T11:44:14.921Z,14.52
2019-03-28T11:49:20.906Z,12.44
2019-03-28T11:54:26.875Z,11.66
2019-03-28T11:59:33.218Z,12.67
2019-03-28T12:04:38.793Z,12.10
2019-03-28T12:09:43.951Z,9.86
2019-03-28T12:14:49.981Z,10.45
2019-03-28T12:19:55.938Z,11.36
2019-03-28T12:25:01.930Z,11.79
2019-03-28T12:30:07.918Z,12.02
2019-03-28T12:35:13.905Z,11.78
2019-03-28T12:40:19.928Z,12.35
2019-03-28T12:45:26.514Z,11.41
2019-03-28T12:50:31.443Z,12.39
2019-03-28T12:55:37.542Z,12.07
2019-03-28T13:00:43.906Z,11.78
2019-03-28T13:05:49.968Z,14.18
2019-03-28T13:10:55.948Z,13.63
2019-03-28T13:16:01.964Z,12.98
2019-03-28T13:21:13.861Z,13.94
2019-03-28T13:26:13.493Z,14.65
2019-03-28T13:31:19.534Z,14.50
2019-03-28T13:36:25.540Z,15.72
2019-03-28T13:41:31.742Z,15.21
2019-03-28T13:46:37.726Z,13.39
2019-03-28T13:51:43.738Z,13.56
2019-03-28T13:56:49.718Z,15.57
2019-03-28T14:01:55.740Z,15.24
2019-03-28T14:07:01.723Z,15.19
2019-03-28T14:12:07.821Z,15.77
2019-03-28T14:17:13.799Z,18.03
2019-03-28T14:22:19.798Z,17.52
2019-03-28T14:27:25.885Z,19.09
2019-03-28T14:32:33.136Z,16.24
2019-03-28T14:37:40.647Z,16.86
2019-03-28T14:42:43.006Z,15.99
2019-03-28T14:47:49.070Z,16.54
2019-03-28T14:52:55.133Z,16.56
2019-03-28T14:58:01.144Z,15.57
2019-03-28T15:03:07.171Z,16.12
2019-03-28T15:08:13.163Z,15.25
2019-03-28T15:13:19.238Z,15.30
2019-03-28T15:18:25.425Z,12.90
2019-03-28T15:23:31.416Z,14.14
2019-03-28T15:28:37.413Z,14.26
2019-03-28T15:33:43.505Z,13.66
2019-03-28T15:38:49.600Z,14.25
2019-03-28T15:43:55.573Z,13.16
2019-03-28T15:49:01.913Z,14.41
2019-03-28T15:54:07.770Z,14.64
2019-03-28T15:59:13.735Z,14.08
2019-03-28T16:04:19.780Z,12.98
2019-03-28T16:09:25.791Z,12.74
2019-03-28T16:14:31.839Z,12.67
2019-03-28T16:19:37.822Z,13.01
2019-03-28T16:24:46.444Z,12.63
2019-03-28T16:29:49.430Z,13.41
2019-03-28T16:34:55.479Z,12.17
2019-03-28T16:40:01.573Z,12.83
2019-03-28T16:45:07.832Z,11.66
2019-03-28T16:50:13.797Z,12.32
2019-03-28T16:55:26.195Z,12.60
2019-03-28T17:00:25.430Z,11.88
2019-03-28T17:05:34.523Z,13.21
2019-03-28T17:10:37.241Z,13.53
2019-03-28T17:15:43.415Z,13.36
2019-03-28T17:20:49.409Z,11.52
2019-03-28T17:25:55.503Z,11.76
2019-03-28T17:31:01.546Z,11.23
2019-03-28T17:36:07.587Z,10.93
2019-03-28T17:41:13.609Z,11.76
2019-03-28T17:46:19.646Z,12.19
2019-03-28T17:51:25.827Z,11.17
2019-03-28T17:56:31.901Z,11.87
2019-03-28T18:01:37.959Z,11.23
2019-03-28T18:06:44.013Z,11.11
2019-03-28T18:11:49.955Z,12.48
2019-03-28T18:16:55.959Z,12.84
2019-03-28T18:22:03.753Z,12.71
2019-03-28T18:27:07.529Z,12.88
2019-03-28T18:32:13.518Z,12.18
2019-03-28T18:37:19.567Z,11.82
2019-03-28T18:42:25.678Z,11.51
2019-03-28T18:47:31.690Z,23.79
2019-03-28T18:52:37.697Z,14.22
2019-03-28T18:57:43.658Z,14.46
2019-03-28T19:02:49.706Z,13.95
2019-03-28T19:07:55.813Z,13.41
2019-03-28T19:13:04.502Z,14.47
2019-03-28T19:18:07.397Z,14.68
2019-03-28T19:23:13.861Z,14.88
2019-03-28T19:28:28.586Z,26.19
2019-03-28T19:33:25.463Z,16.98
2019-03-28T19:38:31.490Z,14.35
2019-03-28T19:43:37.503Z,15.29
2019-03-28T19:48:43.545Z,15.82
2019-03-28T19:53:49.628Z,14.96
2019-03-28T19:58:57.375Z,14.06
2019-03-28T20:04:01.217Z,16.72
2019-03-28T20:09:16.146Z,15.21
2019-03-28T20:14:12.789Z,14.55
2019-03-28T20:19:18.908Z,14.99
2019-03-28T20:24:25.142Z,14.89
2019-03-28T20:29:33.385Z,15.52
2019-03-28T20:34:36.952Z,14.93
2019-03-28T20:39:43.019Z,15.12
2019-03-28T20:44:49.114Z,15.51
2019-03-28T20:49:55.131Z,15.51
2019-03-28T20:55:01.154Z,14.38
2019-03-28T21:00:08.617Z,14.96
2019-03-28T21:05:14.501Z,16.05
2019-03-28T21:10:18.398Z,15.94
2019-03-28T21:15:24.441Z,14.27
2019-03-28T21:20:30.590Z,15.30
2019-03-28T21:25:36.614Z,16.51
2019-03-28T21:30:47.719Z,15.28
2019-03-28T21:35:48.331Z,16.03
2019-03-28T21:40:54.371Z,16.86
2019-03-28T21:46:00.412Z,15.67
2019-03-28T21:51:06.408Z,16.29
2019-03-28T21:56:14.229Z,16.15
2019-03-28T22:01:18.199Z,15.53
2019-03-28T22:06:24.239Z,15.29
2019-03-28T22:11:30.216Z,17.53
2019-03-28T22:16:36.306Z,16.38
2019-03-28T22:21:42.270Z,17.39
2019-03-28T22:26:48.260Z,17.68
2019-03-28T22:31:54.282Z,17.70
2019-03-28T22:37:03.461Z,18.45
2019-03-28T22:42:05.797Z,18.37
2019-03-28T22:47:11.836Z,17.56
2019-03-28T22:52:17.873Z,19.22
2019-03-28T22:57:23.909Z,18.08
2019-03-28T23:02:29.941Z,16.83
2019-03-28T23:07:35.935Z,18.51
2019-03-28T23:12:41.938Z,17.32
2019-03-28T23:17:47.903Z,17.47
2019-03-28T23:22:53.868Z,16.75
2019-03-28T23:27:59.847Z,16.05
2019-03-28T23:33:05.858Z,17.72
2019-03-28T23:38:11.856Z,16.48
2019-03-28T23:43:17.849Z,15.71
2019-03-28T23:48:23.815Z,16.94
2019-03-28T23:53:29.775Z,17.62
2019-03-28T23:58:35.777Z,16.77
